createdAt,value
2022-08-17T00:00:43.214Z,21.92
2022-08-17T00:03:38.506Z,22.06
2022-08-17T00:07:21.243Z,21.69
2022-08-17T00:09:48.506Z,21.84
2022-08-17T00:12:43.683Z,21.73
2022-08-17T00:15:08.288Z,21.75
2022-08-17T00:17:38.410Z,21.97
2022-08-17T00:21:23.904Z,21.93
2022-08-17T00:25:07.593Z,21.82
2022-08-17T00:27:36.881Z,21.78
2022-08-17T00:30:10.243Z,21.52
2022-08-17T00:33:52.809Z,21.50
2022-08-17T00:37:35.420Z,21.48
2022-08-17T00:40:05.471Z,21.43
2022-08-17T00:42:33.689Z,21.49
2022-08-17T00:45:01.281Z,21.45
2022-08-17T00:48:44.369Z,21.46
2022-08-17T00:52:27.553Z,21.02
2022-08-17T00:56:10.224Z,21.42
2022-08-17T01:00:01.731Z,20.98
2022-08-17T01:03:45.699Z,20.99
2022-08-17T01:06:13.798Z,20.93
2022-08-17T01:08:42.389Z,20.43
2022-08-17T01:11:10.226Z,20.60
2022-08-17T01:13:43.318Z,20.74
2022-08-17T01:16:32.312Z,20.64
2022-08-17T01:19:09.168Z,20.34
2022-08-17T01:21:48.095Z,20.37
2022-08-17T01:24:17.115Z,20.50
2022-08-17T01:26:46.243Z,20.59
2022-08-17T01:29:14.461Z,20.60
2022-08-17T01:31:53.519Z,20.69
2022-08-17T01:34:22.187Z,21.00
2022-08-17T01:36:51.900Z,20.87
2022-08-17T01:39:45.407Z,20.51
2022-08-17T01:42:39.738Z,20.18
2022-08-17T01:45:17.602Z,20.40
2022-08-17T01:47:45.728Z,20.27
2022-08-17T01:50:32.384Z,20.54
2022-08-17T01:53:10.379Z,20.70
2022-08-17T01:55:47.779Z,20.79
2022-08-17T01:58:15.382Z,20.69
2022-08-17T02:01:00.084Z,20.69
2022-08-17T02:03:30.296Z,20.90
2022-08-17T02:05:58.301Z,21.06
2022-08-17T02:08:39.562Z,20.55
2022-08-17T02:11:19.581Z,20.42
2022-08-17T02:13:57.953Z,20.32
2022-08-17T02:16:37.814Z,20.26
2022-08-17T02:19:15.818Z,20.31
2022-08-17T02:21:49.018Z,20.16
2022-08-17T02:25:00.359Z,20.05
2022-08-17T02:27:22.122Z,20.14
2022-08-17T02:29:49.635Z,20.15
2022-08-17T02:32:28.114Z,20.02
2022-08-17T02:34:58.343Z,20.15
2022-08-17T02:37:28.687Z,20.28
2022-08-17T02:39:58.558Z,20.61
2022-08-17T02:42:40.772Z,20.85
2022-08-17T02:45:23.446Z,20.62
2022-08-17T02:47:52.298Z,20.53
2022-08-17T02:50:24.188Z,20.20
2022-08-17T02:53:02.544Z,20.50
2022-08-17T02:55:38.013Z,20.46
2022-08-17T02:58:06.079Z,20.16
2022-08-17T03:00:47.850Z,20.20
2022-08-17T03:03:20.373Z,20.44
2022-08-17T03:05:53.491Z,20.21
2022-08-17T03:08:21.315Z,20.45
2022-08-17T03:10:50.190Z,20.46
2022-08-17T03:13:17.778Z,20.25
2022-08-17T03:15:47.329Z,20.04
2022-08-17T03:18:25.051Z,20.31
2022-08-17T03:20:58.681Z,20.24
2022-08-17T03:23:29.627Z,20.37
2022-08-17T03:25:58.769Z,20.31
2022-08-17T03:28:28.212Z,20.31
2022-08-17T03:30:55.495Z,20.43
2022-08-17T03:33:23.080Z,20.44
2022-08-17T03:35:50.842Z,20.42
2022-08-17T03:38:18.708Z,20.00
2022-08-17T03:40:57.975Z,20.23
2022-08-17T03:43:31.722Z,20.12
2022-08-17T03:46:34.315Z,20.10
2022-08-17T03:49:26.342Z,20.36
2022-08-17T03:52:15.333Z,19.85
2022-08-17T03:55:03.812Z,19.92
2022-08-17T03:57:32.476Z,19.63
2022-08-17T03:59:59.906Z,19.69
2022-08-17T04:02:33.198Z,19.68
2022-08-17T04:05:01.154Z,19.81
2022-08-17T04:07:31.827Z,20.01
2022-08-17T04:09:59.804Z,20.17
2022-08-17T04:12:31.611Z,19.70
2022-08-17T04:15:03.813Z,20.13
2022-08-17T04:17:30.981Z,20.01
2022-08-17T04:19:58.333Z,19.59
2022-08-17T04:22:30.996Z,19.59
2022-08-17T04:25:18.532Z,19.78
2022-08-17T04:27:45.772Z,20.03
2022-08-17T04:30:13.614Z,19.84
2022-08-17T04:33:20.115Z,19.90
2022-08-17T04:35:54.547Z,19.89
2022-08-17T04:38:27.134Z,19.98
2022-08-17T04:41:15.859Z,20.15
2022-08-17T04:43:46.650Z,20.64
2022-08-17T04:46:19.518Z,20.78
2022-08-17T04:48:52.544Z,20.58
2022-08-17T04:51:35.389Z,20.33
2022-08-17T04:54:10.538Z,20.40
2022-08-17T04:56:39.446Z,20.42
2022-08-17T04:59:21.095Z,20.54
2022-08-17T05:01:51.678Z,20.43
2022-08-17T05:04:35.131Z,20.49
2022-08-17T05:07:04.461Z,21.02
2022-08-17T05:09:32.445Z,21.66
2022-08-17T05:12:05.935Z,22.63
2022-08-17T05:14:33.952Z,23.71
2022-08-17T05:17:09.439Z,23.03
2022-08-17T05:19:38.659Z,22.56
2022-08-17T05:22:06.426Z,22.25
2022-08-17T05:24:42.716Z,22.13
2022-08-17T05:27:21.302Z,22.40
2022-08-17T05:29:51.070Z,22.61
2022-08-17T05:32:39.407Z,22.67
2022-08-17T05:35:08.494Z,22.93
2022-08-17T05:37:35.699Z,24.16
2022-08-17T05:40:03.700Z,25.53
2022-08-17T05:42:31.169Z,27.76
2022-08-17T05:44:58.840Z,29.45
2022-08-17T05:47:27.663Z,30.50
2022-08-17T05:49:55.513Z,32.28
2022-08-17T05:53:22.079Z,32.87
2022-08-17T05:56:41.078Z,33.24
2022-08-17T05:59:19.916Z,33.87
2022-08-17T06:02:11.655Z,34.31
2022-08-17T06:05:17.177Z,34.99
2022-08-17T06:08:24.989Z,36.19
2022-08-17T06:11:10.780Z,36.45
2022-08-17T06:14:22.703Z,36.92
2022-08-17T06:17:00.981Z,37.59
2022-08-17T06:19:44.559Z,37.83
2022-08-17T06:22:18.745Z,37.45
2022-08-17T06:25:01.233Z,37.39
2022-08-17T06:27:53.627Z,37.64
2022-08-17T06:30:36.720Z,38.79
2022-08-17T06:33:34.279Z,39.75
2022-08-17T06:36:18.621Z,39.46
2022-08-17T06:39:31.852Z,38.47
2022-08-17T06:43:02.597Z,36.87
2022-08-17T06:45:43.971Z,36.28
2022-08-17T06:48:31.595Z,37.37
2022-08-17T06:51:22.957Z,37.92
2022-08-17T06:54:07.125Z,39.44
2022-08-17T06:57:16.645Z,40.17
2022-08-17T07:00:00.618Z,41.71
2022-08-17T07:02:54.294Z,40.80
2022-08-17T07:06:27.598Z,39.00
2022-08-17T07:09:13.897Z,39.25
2022-08-17T07:12:03.281Z,40.82
2022-08-17T07:14:36.686Z,40.78
2022-08-17T07:17:46.793Z,40.01
2022-08-17T07:20:22.710Z,39.99
2022-08-17T07:23:19.077Z,40.51
2022-08-17T07:25:46.692Z,39.61
2022-08-17T07:28:22.901Z,40.49
2022-08-17T07:30:55.059Z,42.47
2022-08-17T07:33:28.527Z,42.65
2022-08-17T07:35:58.210Z,42.82
2022-08-17T07:38:35.439Z,44.50
2022-08-17T07:41:10.616Z,45.46
2022-08-17T07:43:41.181Z,46.38
2022-08-17T07:46:30.001Z,46.35
2022-08-17T07:49:08.792Z,45.95
2022-08-17T07:51:44.080Z,46.25
2022-08-17T07:54:22.526Z,47.33
2022-08-17T07:57:32.234Z,48.48
2022-08-17T08:00:15.310Z,46.12
2022-08-17T08:03:00.126Z,43.27
2022-08-17T08:05:50.266Z,42.05
2022-08-17T08:08:42.268Z,40.26
2022-08-17T08:11:15.515Z,38.36
2022-08-17T08:13:45.652Z,37.39
2022-08-17T08:16:33.471Z,35.87
2022-08-17T08:19:02.715Z,35.59
2022-08-17T08:21:48.417Z,34.90
2022-08-17T08:24:43.015Z,34.47
2022-08-17T08:27:22.276Z,34.30
2022-08-17T08:30:21.544Z,34.81
2022-08-17T08:33:39.873Z,35.58
2022-08-17T08:37:20.628Z,35.60
2022-08-17T08:40:40.823Z,35.87
2022-08-17T08:44:02.572Z,36.90
2022-08-17T08:47:00.839Z,36.79
2022-08-17T08:50:04.867Z,36.07
2022-08-17T08:53:15.970Z,35.17
2022-08-17T08:56:06.294Z,34.38
2022-08-17T08:59:25.492Z,33.19
2022-08-17T09:02:17.149Z,32.81
2022-08-17T09:05:14.219Z,32.53
2022-08-17T09:07:46.509Z,32.02
2022-08-17T09:10:34.903Z,32.11
2022-08-17T09:13:54.639Z,32.34
2022-08-17T09:17:19.172Z,32.40
2022-08-17T09:20:27.380Z,32.29
2022-08-17T09:23:15.261Z,32.39
2022-08-17T09:26:41.646Z,32.16
2022-08-17T09:29:18.028Z,32.53
2022-08-17T09:31:59.653Z,32.64
2022-08-17T09:35:14.429Z,32.45
2022-08-17T09:37:59.155Z,33.05
2022-08-17T09:40:49.314Z,32.51
2022-08-17T09:43:48.184Z,32.22
2022-08-17T09:46:34.566Z,31.61
2022-08-17T09:49:36.203Z,31.31
2022-08-17T09:52:27.432Z,31.48
2022-08-17T09:54:58.119Z,31.56
2022-08-17T09:57:43.652Z,31.61
2022-08-17T10:00:31.627Z,32.28
2022-08-17T10:03:39.063Z,32.87
2022-08-17T10:06:30.375Z,33.51
2022-08-17T10:09:15.572Z,34.40
2022-08-17T10:12:17.472Z,33.44
2022-08-17T10:15:59.125Z,33.05
2022-08-17T10:19:22.963Z,32.49
2022-08-17T10:22:34.600Z,32.67
2022-08-17T10:25:30.199Z,32.63
2022-08-17T10:29:25.428Z,33.29
2022-08-17T10:33:15.450Z,32.70
2022-08-17T10:36:58.449Z,33.04
2022-08-17T10:40:42.645Z,33.22
2022-08-17T10:43:44.746Z,33.40
2022-08-17T10:47:11.734Z,33.62
2022-08-17T10:49:47.808Z,33.59
2022-08-17T10:53:30.781Z,33.53
2022-08-17T10:57:13.055Z,33.44
2022-08-17T10:59:41.901Z,33.57
2022-08-17T11:02:43.856Z,34.28
2022-08-17T11:06:26.492Z,34.86
2022-08-17T11:10:09.057Z,35.28
2022-08-17T11:13:53.421Z,34.95
2022-08-17T11:17:36.321Z,34.08
2022-08-17T11:20:25.024Z,34.11
2022-08-17T11:23:19.667Z,34.68
2022-08-17T11:25:58.541Z,35.09
2022-08-17T11:28:34.582Z,34.80
2022-08-17T11:31:37.940Z,34.13
2022-08-17T11:34:21.298Z,33.50
2022-08-17T11:37:28.875Z,32.58
2022-08-17T11:40:14.889Z,32.30
2022-08-17T11:43:25.326Z,32.20
2022-08-17T11:46:16.979Z,32.08
2022-08-17T11:49:12.121Z,32.18
2022-08-17T11:52:01.463Z,32.40
2022-08-17T11:54:47.334Z,32.17
2022-08-17T11:57:26.681Z,32.22
2022-08-17T12:00:08.640Z,32.09
2022-08-17T12:02:47.419Z,32.01
2022-08-17T12:05:16.887Z,32.32
2022-08-17T12:08:06.164Z,32.62
2022-08-17T12:10:48.016Z,32.83
2022-08-17T12:13:19.118Z,33.34
2022-08-17T12:15:52.782Z,34.41
2022-08-17T12:18:28.473Z,35.47
2022-08-17T12:21:16.641Z,36.44
2022-08-17T12:24:22.841Z,37.35
2022-08-17T12:26:59.766Z,37.67
2022-08-17T12:29:38.392Z,37.80
2022-08-17T12:32:18.260Z,37.58
2022-08-17T12:34:49.445Z,37.64
2022-08-17T12:37:21.871Z,37.49
2022-08-17T12:40:24.306Z,37.96
2022-08-17T12:43:07.648Z,38.09
2022-08-17T12:45:39.810Z,38.81
2022-08-17T12:48:26.915Z,39.40
2022-08-17T12:51:03.737Z,39.44
2022-08-17T12:53:36.872Z,39.89
2022-08-17T12:56:13.314Z,39.77
2022-08-17T12:58:54.039Z,40.68
2022-08-17T13:01:23.338Z,42.29
2022-08-17T13:03:59.732Z,43.66
2022-08-17T13:06:36.557Z,44.83
2022-08-17T13:09:35.949Z,44.42
2022-08-17T13:12:08.648Z,44.11
2022-08-17T13:14:36.193Z,44.01
2022-08-17T13:17:11.114Z,43.61
2022-08-17T13:19:49.859Z,43.10
2022-08-17T13:22:24.029Z,41.56
2022-08-17T13:25:07.018Z,40.87
2022-08-17T13:27:34.725Z,40.70
2022-08-17T13:30:12.201Z,41.08
2022-08-17T13:32:48.595Z,41.10
2022-08-17T13:39:25.366Z,39.81
2022-08-17T13:41:56.026Z,40.96
2022-08-17T13:44:40.407Z,41.54
2022-08-17T13:47:21.129Z,41.71
2022-08-17T13:49:49.579Z,42.05
2022-08-17T13:52:43.479Z,41.91
2022-08-17T13:55:22.201Z,41.74
2022-08-17T13:58:04.205Z,41.46
2022-08-17T14:00:36.831Z,41.50
2022-08-17T14:03:05.931Z,41.13
2022-08-17T14:05:33.895Z,41.34
2022-08-17T14:08:06.933Z,40.95
2022-08-17T14:10:36.911Z,40.72
2022-08-17T14:13:06.546Z,40.17
2022-08-17T14:15:54.003Z,39.22
2022-08-17T14:18:53.491Z,38.70
2022-08-17T14:21:10.876Z,39.20
2022-08-17T14:23:38.419Z,38.88
2022-08-17T14:26:06.276Z,38.78
2022-08-17T14:28:33.588Z,38.93
2022-08-17T14:31:03.693Z,38.78
2022-08-17T14:33:31.037Z,37.88
2022-08-17T14:35:58.640Z,37.97
2022-08-17T14:38:26.245Z,38.14
2022-08-17T14:40:54.132Z,38.53
2022-08-17T14:43:21.428Z,38.85
2022-08-17T14:45:48.667Z,39.03
2022-08-17T14:48:16.223Z,39.00
2022-08-17T14:50:44.204Z,38.88
2022-08-17T14:53:16.059Z,37.71
2022-08-17T14:55:45.762Z,37.60
2022-08-17T14:58:14.589Z,37.74
2022-08-17T15:00:43.586Z,37.67
2022-08-17T15:03:11.737Z,37.56
2022-08-17T15:05:39.929Z,37.20
2022-08-17T15:08:07.979Z,37.23
2022-08-17T15:10:40.239Z,37.42
2022-08-17T15:13:23.485Z,37.44
2022-08-17T15:15:52.312Z,37.21
2022-08-17T15:18:20.064Z,37.25
2022-08-17T15:20:50.031Z,37.21
2022-08-17T15:23:22.124Z,37.30
2022-08-17T15:25:53.251Z,37.33
2022-08-17T15:28:25.015Z,37.21
2022-08-17T15:30:54.179Z,37.42
2022-08-17T15:33:29.447Z,37.50
2022-08-17T15:36:02.114Z,37.35
2022-08-17T15:38:35.210Z,37.41
2022-08-17T15:41:02.719Z,37.42
2022-08-17T15:43:32.629Z,37.29
2022-08-17T15:46:18.800Z,37.18
2022-08-17T15:48:50.931Z,36.79
2022-08-17T15:51:24.185Z,36.91
2022-08-17T15:54:04.557Z,36.84
2022-08-17T15:57:04.521Z,36.71
2022-08-17T15:59:31.762Z,36.24
2022-08-17T16:03:15.925Z,35.86
2022-08-17T16:04:48.936Z,35.71
2022-08-17T16:07:26.783Z,35.59
2022-08-17T16:09:54.599Z,35.56
2022-08-17T16:12:22.314Z,35.33
2022-08-17T16:14:53.277Z,35.32
2022-08-17T16:17:38.953Z,35.17
2022-08-17T16:20:20.262Z,35.05
2022-08-17T16:22:50.876Z,34.52
2022-08-17T16:25:50.414Z,34.68
2022-08-17T16:28:16.235Z,34.74
2022-08-17T16:30:44.412Z,34.89
2022-08-17T16:33:13.508Z,35.02
2022-08-17T16:35:41.927Z,34.82
2022-08-17T16:38:10.969Z,34.68
2022-08-17T16:40:39.007Z,34.67
2022-08-17T16:43:10.534Z,34.79
2022-08-17T16:45:40.304Z,34.80
2022-08-17T16:48:10.122Z,34.84
2022-08-17T16:50:38.003Z,34.66
2022-08-17T16:53:17.749Z,34.47
2022-08-17T16:55:48.581Z,34.32
2022-08-17T16:58:16.244Z,34.28
2022-08-17T17:00:45.871Z,34.03
2022-08-17T17:03:27.756Z,33.99
2022-08-17T17:06:31.428Z,33.78
2022-08-17T17:09:07.806Z,33.62
2022-08-17T17:11:52.860Z,33.37
2022-08-17T17:14:43.708Z,33.23
2022-08-17T17:17:36.464Z,33.00
2022-08-17T17:20:25.958Z,32.46
2022-08-17T17:23:11.319Z,32.47
2022-08-17T17:26:48.538Z,32.31
2022-08-17T17:30:02.336Z,32.17
2022-08-17T17:33:48.072Z,32.00
2022-08-17T17:36:41.263Z,31.98
2022-08-17T17:40:24.357Z,31.78
2022-08-17T17:43:05.424Z,31.80
2022-08-17T17:45:54.175Z,31.44
2022-08-17T17:49:37.126Z,31.33
2022-08-17T17:53:19.934Z,31.17
2022-08-17T17:56:40.269Z,30.97
2022-08-17T18:00:27.407Z,30.91
2022-08-17T18:04:16.974Z,30.80
2022-08-17T18:08:10.843Z,30.77
2022-08-17T18:11:24.231Z,30.65
2022-08-17T18:14:26.872Z,30.50
2022-08-17T18:18:09.651Z,30.34
2022-08-17T18:20:54.024Z,30.24
2022-08-17T18:23:27.892Z,30.09
2022-08-17T18:27:11.269Z,29.88
2022-08-17T18:30:54.020Z,29.79
2022-08-17T18:34:48.320Z,29.72
2022-08-17T18:37:38.352Z,29.56
2022-08-17T18:40:37.540Z,29.42
2022-08-17T18:43:24.430Z,29.36
2022-08-17T18:47:07.410Z,29.43
2022-08-17T18:50:51.367Z,29.27
2022-08-17T18:54:37.556Z,29.48
2022-08-17T18:57:07.715Z,29.16
2022-08-17T18:59:49.511Z,29.22
2022-08-17T19:03:32.292Z,28.99
2022-08-17T19:07:14.819Z,28.97
2022-08-17T19:10:57.313Z,28.89
2022-08-17T19:14:39.843Z,28.65
2022-08-17T19:17:48.556Z,28.72
2022-08-17T19:20:38.067Z,28.81
2022-08-17T19:24:20.477Z,28.79
2022-08-17T19:27:16.680Z,28.92
2022-08-17T19:30:08.538Z,28.88
2022-08-17T19:32:36.473Z,28.88
2022-08-17T19:35:11.416Z,28.74
2022-08-17T19:38:13.427Z,28.79
2022-08-17T19:41:20.388Z,28.82
2022-08-17T19:44:32.142Z,28.56
2022-08-17T19:47:53.232Z,28.51
2022-08-17T19:51:08.210Z,28.41
2022-08-17T19:54:06.442Z,28.24
2022-08-17T19:57:02.912Z,28.40
2022-08-17T20:00:11.495Z,28.07
2022-08-17T20:03:06.309Z,28.13
2022-08-17T20:06:10.838Z,28.13
2022-08-17T20:08:43.313Z,28.20
2022-08-17T20:11:31.712Z,27.99
2022-08-17T20:14:20.029Z,27.73
2022-08-17T20:16:48.171Z,27.70
2022-08-17T20:19:57.389Z,27.65
2022-08-17T20:22:49.357Z,27.55
2022-08-17T20:25:45.413Z,27.42
2022-08-17T20:29:13.870Z,27.39
2022-08-17T20:31:56.441Z,27.36
2022-08-17T20:34:30.830Z,27.26
2022-08-17T20:37:31.228Z,27.27
2022-08-17T20:39:58.401Z,27.21
2022-08-17T20:42:27.228Z,27.24
2022-08-17T20:45:20.671Z,27.36
2022-08-17T20:48:33.338Z,27.21
2022-08-17T20:51:00.601Z,27.04
2022-08-17T20:54:06.825Z,27.00
2022-08-17T20:56:44.259Z,26.92
2022-08-17T20:59:27.512Z,26.80
2022-08-17T21:02:18.139Z,26.78
2022-08-17T21:05:23.337Z,26.91
2022-08-17T21:08:16.685Z,26.93
2022-08-17T21:10:47.038Z,26.81
2022-08-17T21:13:15.721Z,27.09
2022-08-17T21:16:21.235Z,27.09
2022-08-17T21:20:13.281Z,27.10
2022-08-17T21:22:59.005Z,27.09
2022-08-17T21:26:50.705Z,27.08
2022-08-17T21:29:31.912Z,27.04
2022-08-17T21:32:03.092Z,27.14
2022-08-17T21:35:02.234Z,27.34
2022-08-17T21:38:45.448Z,27.56
2022-08-17T21:41:57.962Z,27.38
2022-08-17T21:45:41.182Z,26.92
2022-08-17T21:49:23.572Z,26.85
2022-08-17T21:53:08.732Z,26.15
2022-08-17T21:56:51.763Z,26.09
2022-08-17T22:00:34.300Z,25.38
2022-08-17T22:03:24.610Z,25.62
2022-08-17T22:07:07.211Z,25.57
2022-08-17T22:10:51.187Z,25.66
2022-08-17T22:14:53.370Z,25.67
2022-08-17T22:18:36.815Z,25.79
2022-08-17T22:21:06.073Z,25.66
2022-08-17T22:24:06.589Z,25.80
2022-08-17T22:27:11.538Z,25.62
2022-08-17T22:29:59.365Z,25.09
2022-08-17T22:32:43.761Z,24.93
2022-08-17T22:35:29.170Z,24.97
2022-08-17T22:37:58.946Z,25.03
2022-08-17T22:40:34.420Z,25.55
2022-08-17T22:43:03.464Z,25.40
2022-08-17T22:45:31.134Z,25.05
2022-08-17T22:48:01.982Z,24.82
2022-08-17T22:50:33.012Z,24.81
2022-08-17T22:53:35.620Z,24.95
2022-08-17T22:56:22.880Z,24.65
2022-08-17T22:59:17.458Z,24.44
2022-08-17T23:02:23.283Z,24.12
2022-08-17T23:05:11.070Z,23.36
2022-08-17T23:07:39.735Z,22.91
2022-08-17T23:10:12.495Z,22.45
2022-08-17T23:12:40.794Z,22.48
2022-08-17T23:15:17.800Z,22.47
2022-08-17T23:17:45.896Z,21.95
2022-08-17T23:20:17.415Z,21.76
2022-08-17T23:22:52.816Z,21.63
2022-08-17T23:25:33.540Z,21.81
2022-08-17T23:28:07.274Z,21.77
2022-08-17T23:30:42.533Z,21.78
2022-08-17T23:33:31.172Z,21.62
2022-08-17T23:36:01.449Z,21.48
2022-08-17T23:38:28.889Z,21.70
2022-08-17T23:41:04.389Z,21.95
2022-08-17T23:43:31.849Z,21.93
2022-08-17T23:46:00.773Z,21.95
2022-08-17T23:48:34.931Z,21.97
2022-08-17T23:51:14.004Z,21.90
2022-08-17T23:53:47.897Z,21.96
2022-08-17T23:56:18.244Z,22.00
2022-08-17T23:58:45.471Z,22.06
